Time;durP1;ratioP1;P1;durP2;ratioP2;P2;SDS_P1;SDS_P2;PMS_P1;PMS_P2;Temp;Humidity;BMP_temperature;BMP_pressure;BME280_temperature;BME280_humidity;BME280_pressure;Samples;Min_cycle;Max_cycle;Signal;HPM_P1;HPM_P2
2022/04/14 00:00:17;;;;;;;8.18;4.75;;;;;;;-140.72;100.00;52634.38;5045730;28;20104;-68
2022/04/14 00:02:42;;;;;;;6.78;4.07;;;;;;;-140.72;100.00;52683.06;5044033;28;20115;-69
2022/04/14 00:05:08;;;;;;;7.45;4.90;;;;;;;-140.72;100.00;52630.31;5045922;28;20041;-68
2022/04/14 00:07:33;;;;;;;6.28;3.15;;;;;;;-140.72;100.00;52605.94;5045619;28;20048;-67
2022/04/14 00:09:58;;;;;;;6.65;4.15;;;;;;;-140.72;100.00;52679.00;5045211;28;20029;-68
2022/04/14 00:12:24;;;;;;;9.93;5.53;;;;;;;-140.72;100.00;52644.50;5045437;28;20067;-68
2022/04/14 00:14:49;;;;;;;6.05;4.65;;;;;;;-140.72;100.00;52644.50;5045337;28;20089;-68
2022/04/14 00:17:14;;;;;;;5.80;4.40;;;;;;;-140.72;100.00;52660.75;5044573;28;20112;-68
2022/04/14 00:19:40;;;;;;;10.50;5.00;;;;;;;-140.72;100.00;52622.19;5045434;28;20025;-67
2022/04/14 00:22:06;;;;;;;5.47;4.72;;;;;;;-140.72;100.00;52652.63;5044470;28;20085;-68
2022/04/14 00:24:31;;;;;;;14.23;5.43;;;;;;;-140.72;100.00;52648.56;5045454;28;20031;-68
2022/04/14 00:26:57;;;;;;;14.50;5.07;;;;;;;-140.72;100.00;52644.50;5045295;28;20089;-68
2022/04/14 00:29:22;;;;;;;7.45;4.65;;;;;;;-140.72;100.00;52670.88;5044615;28;20139;-68
2022/04/14 00:31:47;;;;;;;7.32;4.53;;;;;;;-140.72;100.00;52616.09;5045292;28;20494;-68
2022/04/14 00:34:13;;;;;;;8.90;5.50;;;;;;;-140.72;100.00;52656.69;5045154;28;20538;-68
2022/04/14 00:36:38;;;;;;;8.35;5.07;;;;;;;-140.72;100.00;52610.00;5044424;28;20538;-67
2022/04/14 00:39:04;;;;;;;9.52;5.32;;;;;;;-140.72;100.00;52622.19;5044996;28;20033;-68
2022/04/14 00:41:29;;;;;;;6.75;4.47;;;;;;;-140.72;100.00;52662.78;5044638;28;20142;-68
2022/04/14 00:43:55;;;;;;;9.88;4.50;;;;;;;-140.72;100.00;52668.84;5044595;28;20560;-67
2022/04/14 00:46:21;;;;;;;7.10;4.72;;;;;;;-140.72;100.00;52614.06;5044967;28;20178;-67
2022/04/14 00:48:48;;;;;;;8.40;4.82;;;;;;;-140.72;100.00;52642.47;5045016;28;20226;-68
2022/04/14 00:51:15;;;;;;;8.48;4.82;;;;;;;-140.72;100.00;52654.66;5023864;28;20141;-67
2022/04/14 00:53:41;;;;;;;8.35;5.13;;;;;;;-140.72;100.00;52697.28;5041058;28;20038;-68
2022/04/14 00:56:08;;;;;;;9.40;4.88;;;;;;;-140.72;100.00;52670.88;5006076;28;20042;-68
2022/04/14 00:58:34;;;;;;;7.97;4.72;;;;;;;-140.72;100.00;52656.69;5006509;28;20367;-67
2022/04/14 01:01:00;;;;;;;5.88;4.55;;;;;;;-140.72;100.00;52681.03;5020513;28;20348;-67
2022/04/14 01:03:25;;;;;;;5.47;4.15;;;;;;;-140.72;100.00;52674.94;5024712;28;20026;-68
2022/04/14 01:05:53;;;;;;;8.52;4.75;;;;;;;-140.72;100.00;52618.13;5024646;28;20079;-68
2022/04/14 01:08:19;;;;;;;8.25;4.53;;;;;;;-140.72;100.00;52644.50;5074559;28;20020;-68
2022/04/14 01:10:50;;;;;;;7.97;5.55;;;;;;;-140.72;100.00;52672.91;5092764;27;20053;-67
2022/04/14 01:13:17;;;;;;;7.53;5.55;;;;;;;-140.72;100.00;52703.34;5108116;27;20118;-68
2022/04/14 01:15:44;;;;;;;8.10;5.72;;;;;;;-140.72;100.00;52644.50;5132540;27;20038;-67
2022/04/14 01:18:09;;;;;;;7.45;4.97;;;;;;;-140.72;100.00;52683.06;5132516;27;20019;-68
2022/04/14 01:20:36;;;;;;;8.23;5.78;;;;;;;-140.72;100.00;52666.84;5131958;27;20083;-67
2022/04/14 01:23:03;;;;;;;8.88;5.40;;;;;;;-140.72;100.00;52660.75;5132469;27;20107;-68
2022/04/14 01:25:30;;;;;;;9.35;5.47;;;;;;;-140.72;100.00;52672.91;5072791;27;20084;-67
2022/04/14 01:27:55;;;;;;;9.07;6.50;;;;;;;-140.72;100.00;52630.31;5028116;28;20030;-68
2022/04/14 01:30:22;;;;;;;8.88;6.10;;;;;;;-140.72;100.00;52683.06;5027785;28;20045;-67
2022/04/14 01:32:48;;;;;;;7.10;5.20;;;;;;;-140.72;100.00;52650.59;5034647;27;20025;-68
2022/04/14 01:35:14;;;;;;;11.52;6.82;;;;;;;-140.72;100.00;52703.34;5131017;27;20102;-68
2022/04/14 01:37:40;;;;;;;9.70;7.07;;;;;;;-140.72;100.00;52674.94;5132429;27;20102;-68
2022/04/14 01:40:06;;;;;;;9.27;6.15;;;;;;;-140.72;100.00;52697.28;5131693;27;20023;-68
2022/04/14 01:42:31;;;;;;;8.07;6.07;;;;;;;-140.72;100.00;52676.97;5131694;27;20031;-68
2022/04/14 01:44:57;;;;;;;12.50;6.47;;;;;;;-140.72;100.00;52670.88;5132204;27;20341;-68
2022/04/14 01:47:22;;;;;;;16.92;6.63;;;;;;;-140.72;100.00;52662.78;5130921;27;20183;-68
2022/04/14 01:49:47;;;;;;;10.68;6.13;;;;;;;-140.72;100.00;52670.88;5131564;27;20466;-68
2022/04/14 01:52:13;;;;;;;12.18;7.38;;;;;;;-140.72;100.00;52683.06;5132184;27;20051;-68
2022/04/14 01:54:38;;;;;;;8.18;5.32;;;;;;;-140.72;100.00;52699.31;5131944;27;20110;-67
2022/04/14 01:57:04;;;;;;;11.95;7.50;;;;;;;-140.72;100.00;52699.31;5131871;27;20041;-68
2022/04/14 01:59:30;;;;;;;13.15;8.07;;;;;;;-140.72;100.00;52670.88;5078711;27;20025;-68
2022/04/14 02:01:55;;;;;;;12.30;7.78;;;;;;;-140.72;100.00;52650.59;5027322;28;20029;-68
2022/04/14 02:04:20;;;;;;;12.75;7.80;;;;;;;-140.72;100.00;52691.19;5027152;28;20021;-67
2022/04/14 02:06:46;;;;;;;12.50;8.07;;;;;;;-140.72;100.00;52687.13;5027546;28;20026;-68
2022/04/14 02:09:12;;;;;;;10.68;7.60;;;;;;;-140.72;100.00;52648.56;5026881;28;20459;-67
2022/04/14 02:11:37;;;;;;;8.38;6.38;;;;;;;-140.72;100.00;52683.06;5027191;28;20033;-68
2022/04/14 02:14:03;;;;;;;10.77;7.07;;;;;;;-140.72;100.00;52676.97;5027365;28;20060;-68
2022/04/14 02:16:29;;;;;;;9.52;5.70;;;;;;;-140.72;100.00;52691.19;5026225;28;20460;-68
2022/04/14 02:18:54;;;;;;;13.63;6.80;;;;;;;-140.72;100.00;52648.56;5027366;28;20030;-67
2022/04/14 02:21:19;;;;;;;14.38;8.77;;;;;;;-140.72;100.00;52650.59;5026758;28;20036;-68
2022/04/14 02:23:45;;;;;;;12.52;6.43;;;;;;;-140.72;100.00;52697.28;5026348;28;20492;-67
2022/04/14 02:26:10;;;;;;;10.68;7.70;;;;;;;-140.72;100.00;52676.97;5027112;28;20104;-68
2022/04/14 02:28:35;;;;;;;8.50;6.45;;;;;;;-140.72;100.00;52658.72;5026343;28;20120;-67
2022/04/14 02:31:01;;;;;;;11.30;7.68;;;;;;;-140.72;100.00;52709.44;5026946;28;20051;-67
2022/04/14 02:33:26;;;;;;;13.27;8.00;;;;;;;-140.72;100.00;52670.88;5026804;28;20483;-67
2022/04/14 02:35:52;;;;;;;11.40;7.70;;;;;;;-140.72;100.00;52695.25;5026945;28;20459;-67
2022/04/14 02:38:17;;;;;;;8.10;5.78;;;;;;;-140.72;100.00;52741.91;5027176;28;20101;-68
2022/04/14 02:40:42;;;;;;;8.98;7.13;;;;;;;-140.72;100.00;52715.53;5027476;28;20124;-67
2022/04/14 02:43:08;;;;;;;14.40;6.53;;;;;;;-140.72;100.00;52711.47;5026568;28;20041;-67
2022/04/14 02:45:33;;;;;;;15.27;7.85;;;;;;;-140.72;100.00;52703.34;5027172;28;20041;-68
2022/04/14 02:47:58;;;;;;;13.95;7.80;;;;;;;-140.72;100.00;52646.53;5027408;28;20033;-67
2022/04/14 02:50:24;;;;;;;11.10;8.05;;;;;;;-140.72;100.00;52670.88;5025506;28;20086;-68
2022/04/14 02:52:50;;;;;;;9.70;6.57;;;;;;;-140.72;100.00;52681.03;5026811;28;20036;-67
2022/04/14 02:55:19;;;;;;;11.50;7.28;;;;;;;-140.72;100.00;52703.34;5026543;28;20106;-67
2022/04/14 02:57:44;;;;;;;7.63;6.07;;;;;;;-140.72;100.00;52719.59;5026029;28;20133;-68
2022/04/14 03:00:10;;;;;;;10.07;6.78;;;;;;;-140.72;100.00;52711.47;5026618;28;20061;-67
2022/04/14 03:02:36;;;;;;;10.00;6.28;;;;;;;-140.72;100.00;52670.88;5026128;28;20041;-68
2022/04/14 03:05:02;;;;;;;12.27;6.82;;;;;;;-140.72;100.00;52672.91;5025844;28;20040;-68
2022/04/14 03:07:29;;;;;;;8.05;5.45;;;;;;;-140.72;100.00;52723.66;5026401;28;20029;-68
2022/04/14 03:09:54;;;;;;;13.73;6.47;;;;;;;-140.72;100.00;52666.84;5026639;28;20177;-67
2022/04/14 03:12:20;;;;;;;12.88;6.65;;;;;;;-140.72;100.00;52719.59;5025493;28;20060;-68
2022/04/14 03:14:47;;;;;;;6.43;5.70;;;;;;;-140.72;100.00;52685.09;5026219;28;20033;-68
2022/04/14 03:17:12;;;;;;;9.77;6.75;;;;;;;-140.72;100.00;52689.16;5026433;28;20041;-67
2022/04/14 03:19:37;;;;;;;9.80;6.30;;;;;;;-140.72;100.00;52693.22;5025670;28;20455;-68
2022/04/14 03:22:03;;;;;;;9.40;6.18;;;;;;;-140.72;100.00;52681.03;5026189;28;20033;-67
2022/04/14 03:24:28;;;;;;;10.27;5.90;;;;;;;-140.72;100.00;52685.09;5025982;28;20037;-67
2022/04/14 03:26:54;;;;;;;7.03;5.40;;;;;;;-140.72;100.00;52699.31;5025473;28;20029;-67
2022/04/14 03:29:19;;;;;;;9.70;5.82;;;;;;;-140.72;100.00;52699.31;5025744;28;20029;-68
2022/04/14 03:31:44;;;;;;;7.57;5.45;;;;;;;-140.72;100.00;52691.19;5025951;28;20030;-68
2022/04/14 03:34:10;;;;;;;9.52;6.82;;;;;;;-140.72;100.00;52719.59;5025287;28;20475;-67
2022/04/14 03:36:35;;;;;;;11.48;7.10;;;;;;;-140.72;100.00;52681.03;5025578;28;20074;-68
2022/04/14 03:39:01;;;;;;;7.63;5.68;;;;;;;-140.72;100.00;52681.03;5025335;28;20394;-68
2022/04/14 03:41:26;;;;;;;8.70;6.28;;;;;;;-140.72;100.00;52725.69;5032942;28;20422;-68
2022/04/14 03:43:51;;;;;;;11.10;6.30;;;;;;;-140.72;100.00;52685.09;5045798;28;20461;-68
2022/04/14 03:46:19;;;;;;;9.43;5.78;;;;;;;-140.72;100.00;52687.13;5044699;28;20375;-68
2022/04/14 03:48:45;;;;;;;13.77;7.07;;;;;;;-140.72;100.00;52725.69;5045825;28;20163;-68
2022/04/14 03:51:14;;;;;;;11.32;6.45;;;;;;;-140.72;100.00;52689.16;5045799;28;20081;-67
2022/04/14 03:53:39;;;;;;;10.30;5.85;;;;;;;-140.72;100.00;52666.84;5044780;28;20470;-67
2022/04/14 03:56:05;;;;;;;8.38;5.78;;;;;;;-140.72;100.00;52654.66;5045798;28;20036;-68
2022/04/14 03:58:30;;;;;;;11.75;6.57;;;;;;;-140.72;100.00;52691.19;5045155;28;20478;-68
2022/04/14 04:00:55;;;;;;;10.02;6.10;;;;;;;-140.72;100.00;52695.25;5044724;28;20025;-67
2022/04/14 04:03:22;;;;;;;10.50;7.20;;;;;;;-140.72;100.00;52705.38;5045071;28;20106;-68
2022/04/14 04:05:48;;;;;;;18.17;6.70;;;;;;;-140.72;100.00;52666.84;5046077;28;20418;-68
2022/04/14 04:08:13;;;;;;;9.15;5.95;;;;;;;-140.72;100.00;52658.72;5044933;28;20036;-67
2022/04/14 04:10:39;;;;;;;10.00;6.05;;;;;;;-140.72;100.00;52695.25;5045257;28;20033;-67
2022/04/14 04:13:05;;;;;;;8.75;5.88;;;;;;;-140.72;100.00;52705.38;5045360;28;20083;-68
2022/04/14 04:15:30;;;;;;;8.82;6.03;;;;;;;-140.72;100.00;52679.00;5044245;28;20033;-68
2022/04/14 04:17:55;;;;;;;8.90;5.57;;;;;;;-140.72;100.00;52668.84;5045252;28;20025;-67
2022/04/14 04:20:21;;;;;;;8.85;5.28;;;;;;;-140.72;100.00;52642.47;5045305;28;20025;-67
2022/04/14 04:22:46;;;;;;;13.13;7.63;;;;;;;-140.72;100.00;52703.34;5044543;28;20029;-68
2022/04/14 04:25:12;;;;;;;11.38;5.63;;;;;;;-140.72;100.00;52650.59;5045244;28;20021;-68
2022/04/14 04:27:38;;;;;;;7.88;5.97;;;;;;;-140.72;100.00;52666.84;5044712;28;20076;-68
2022/04/14 04:30:04;;;;;;;10.75;6.07;;;;;;;-140.72;100.00;52672.91;5044217;28;20153;-68
2022/04/14 04:32:33;;;;;;;12.55;7.25;;;;;;;-140.72;100.00;52693.22;5044778;28;20469;-67
2022/04/14 04:35:02;;;;;;;10.13;4.72;;;;;;;-140.72;100.00;52668.84;5045729;28;20490;-67
2022/04/14 04:37:28;;;;;;;7.03;5.30;;;;;;;-140.72;100.00;52695.25;5044463;28;20098;-67
2022/04/14 04:39:53;;;;;;;11.45;5.20;;;;;;;-140.72;100.00;52699.31;5045356;28;20041;-68
2022/04/14 04:42:18;;;;;;;10.70;6.50;;;;;;;-140.72;100.00;52687.13;5030816;28;20108;-68
2022/04/14 04:44:44;;;;;;;10.27;6.35;;;;;;;-140.72;100.00;52711.47;5023209;28;20066;-68
2022/04/14 04:47:09;;;;;;;9.52;6.35;;;;;;;-140.72;100.00;52709.44;5010453;28;20152;-67
2022/04/14 04:49:34;;;;;;;10.95;7.25;;;;;;;-140.72;100.00;52687.13;5015251;28;20266;-67
2022/04/14 04:52:00;;;;;;;12.93;6.93;;;;;;;-140.72;100.00;52693.22;5015225;28;20030;-67
2022/04/14 04:54:25;;;;;;;8.35;6.13;;;;;;;-140.72;100.00;52679.00;5020342;28;20029;-67
2022/04/14 04:56:51;;;;;;;13.27;5.80;;;;;;;-140.72;100.00;52674.94;5021082;28;20045;-67
2022/04/14 04:59:16;;;;;;;8.68;5.22;;;;;;;-140.72;100.00;52713.50;5022136;28;20518;-67
2022/04/14 05:01:42;;;;;;;10.68;6.43;;;;;;;-140.72;100.00;52662.78;5019846;28;20592;-67
2022/04/14 05:04:09;;;;;;;15.13;6.45;;;;;;;-140.72;100.00;52676.97;5021737;28;20476;-67
2022/04/14 05:06:34;;;;;;;9.77;4.45;;;;;;;-140.72;100.00;52681.03;5016262;28;20407;-67
2022/04/14 05:08:59;;;;;;;10.43;5.28;;;;;;;-140.72;100.00;52711.47;5016454;28;20028;-67
2022/04/14 05:11:25;;;;;;;9.43;5.78;;;;;;;-140.72;100.00;52666.84;5024439;28;20037;-67
2022/04/14 05:13:50;;;;;;;10.15;6.85;;;;;;;-140.72;100.00;52693.22;5022054;28;20029;-67
2022/04/14 05:16:15;;;;;;;8.80;6.10;;;;;;;-140.72;100.00;52695.25;5017271;28;20036;-67
2022/04/14 05:18:41;;;;;;;9.73;4.95;;;;;;;-140.72;100.00;52650.59;5015403;28;20026;-67
2022/04/14 05:21:06;;;;;;;9.13;5.88;;;;;;;-140.72;100.00;52674.94;5015257;28;20022;-66
2022/04/14 05:23:31;;;;;;;9.85;5.85;;;;;;;-140.72;100.00;52652.63;5012925;28;20102;-68
2022/04/14 05:25:57;;;;;;;8.55;5.80;;;;;;;-140.72;100.00;52693.22;5012984;28;20075;-68
2022/04/14 05:28:22;;;;;;;9.45;7.00;;;;;;;-140.72;100.00;52674.94;5012949;28;20149;-67
2022/04/14 05:30:48;;;;;;;10.93;5.60;;;;;;;-140.72;100.00;52666.84;5023567;28;20041;-67
2022/04/14 05:33:14;;;;;;;6.78;5.57;;;;;;;-140.72;100.00;52668.84;5014443;28;20532;-67
2022/04/14 05:35:40;;;;;;;9.80;5.50;;;;;;;-140.72;100.00;52743.94;5017435;28;20137;-66
2022/04/14 05:38:06;;;;;;;14.05;6.15;;;;;;;-140.72;100.00;52681.03;5016202;28;20033;-67
2022/04/14 05:40:32;;;;;;;8.40;6.10;;;;;;;-140.72;100.00;52703.34;5007261;28;20414;-67
2022/04/14 05:42:57;;;;;;;12.63;6.53;;;;;;;-140.72;100.00;52679.00;5018358;28;20435;-68
2022/04/14 05:45:23;;;;;;;8.80;6.28;;;;;;;-140.72;100.00;52693.22;5012695;28;20033;-67
2022/04/14 05:47:49;;;;;;;9.45;6.25;;;;;;;-140.72;100.00;52707.41;5012893;28;20026;-67
2022/04/14 05:50:14;;;;;;;9.90;6.75;;;;;;;-140.72;100.00;52668.84;5018959;28;20026;-68
2022/04/14 05:52:40;;;;;;;10.73;5.10;;;;;;;-140.72;100.00;52679.00;5021365;28;20037;-67
2022/04/14 05:55:06;;;;;;;9.00;6.07;;;;;;;-140.72;100.00;52642.47;5027191;28;20519;-67
2022/04/14 05:57:32;;;;;;;11.48;5.28;;;;;;;-140.72;100.00;52648.56;5026629;28;20109;-67
2022/04/14 05:59:58;;;;;;;10.35;7.18;;;;;;;-140.72;100.00;52620.16;5011389;28;20053;-67
2022/04/14 06:02:23;;;;;;;10.18;7.45;;;;;;;-140.72;100.00;52628.28;5016394;28;20470;-68
2022/04/14 06:04:48;;;;;;;10.77;6.22;;;;;;;-140.72;100.00;52679.00;5012874;28;20108;-67
2022/04/14 06:07:14;;;;;;;11.88;5.97;;;;;;;-140.72;100.00;52676.97;5008885;28;20086;-67
2022/04/14 06:09:39;;;;;;;12.98;6.13;;;;;;;-140.72;100.00;52658.72;5010114;28;20026;-67
2022/04/14 06:12:06;;;;;;;9.65;5.82;;;;;;;-140.72;100.00;52652.63;5010825;28;20349;-68
2022/04/14 06:14:33;;;;;;;8.45;5.95;;;;;;;-140.72;100.00;52642.47;5017916;28;20036;-68
2022/04/14 06:16:59;;;;;;;11.57;5.97;;;;;;;-140.72;100.00;52616.09;5009947;28;20489;-67
2022/04/14 06:19:25;;;;;;;8.45;6.32;;;;;;;-140.72;100.00;52648.56;5016389;28;20078;-67
2022/04/14 06:21:50;;;;;;;12.63;5.93;;;;;;;-140.72;100.00;52648.56;5020128;28;20021;-67
2022/04/14 06:24:16;;;;;;;9.52;6.13;;;;;;;-140.72;100.00;52634.38;5014745;28;20455;-67
2022/04/14 06:26:41;;;;;;;10.95;6.45;;;;;;;-140.72;100.00;52648.56;5009838;28;20451;-67
2022/04/14 06:29:07;;;;;;;8.23;5.20;;;;;;;-140.72;100.00;52628.28;5014574;28;20383;-67
2022/04/14 06:31:32;;;;;;;8.45;5.70;;;;;;;-140.72;100.00;52670.88;5011186;28;20461;-67
2022/04/14 06:33:58;;;;;;;13.05;5.63;;;;;;;-140.72;100.00;52666.84;5013163;28;20062;-67
2022/04/14 06:36:23;;;;;;;10.77;5.22;;;;;;;-140.72;100.00;52642.47;5020291;28;20094;-67
2022/04/14 06:38:48;;;;;;;15.02;6.30;;;;;;;-140.72;100.00;52626.25;5014740;28;20348;-67
2022/04/14 06:41:14;;;;;;;10.05;4.53;;;;;;;-140.72;100.00;52595.81;5022403;28;20436;-68
2022/04/14 06:43:39;;;;;;;12.23;5.95;;;;;;;-140.72;100.00;52624.22;5012885;28;20472;-67
2022/04/14 06:46:04;;;;;;;9.18;5.15;;;;;;;-140.72;100.00;52634.38;5011291;28;20034;-67
2022/04/14 06:48:31;;;;;;;18.38;6.00;;;;;;;-140.72;100.00;52628.28;5014832;28;20121;-67
2022/04/14 06:51:00;;;;;;;8.00;5.07;;;;;;;-140.72;100.00;52626.25;5014534;28;20029;-67
2022/04/14 06:53:26;;;;;;;8.82;5.53;;;;;;;-140.72;100.00;52632.34;5006565;28;20021;-67
2022/04/14 06:55:53;;;;;;;8.52;5.65;;;;;;;-140.72;100.00;52605.94;5015847;28;20494;-67
2022/04/14 06:58:19;;;;;;;6.72;5.20;;;;;;;-140.72;100.00;52656.69;5024388;28;20041;-67
2022/04/14 07:00:44;;;;;;;11.95;6.50;;;;;;;-140.72;100.00;52626.25;5026443;28;20453;-67
2022/04/14 07:03:10;;;;;;;14.57;6.35;;;;;;;-140.72;100.00;52620.16;5008074;28;20054;-67
2022/04/14 07:05:35;;;;;;;7.68;5.10;;;;;;;-140.72;100.00;52585.66;5018743;28;20120;-67
2022/04/14 07:08:01;;;;;;;8.90;4.47;;;;;;;-140.72;100.00;52638.41;5026755;28;20037;-67
2022/04/14 07:10:27;;;;;;;9.43;5.82;;;;;;;-140.72;100.00;52664.81;5021505;28;20032;-68
2022/04/14 07:12:53;;;;;;;9.55;4.05;;;;;;;-140.72;100.00;52642.47;5025267;28;20052;-67
2022/04/14 07:15:18;;;;;;;6.00;3.35;;;;;;;-140.72;100.00;52605.94;5026157;28;20029;-67
2022/04/14 07:17:44;;;;;;;7.20;4.57;;;;;;;-140.72;100.00;52642.47;5024690;28;20041;-67
2022/04/14 07:20:09;;;;;;;12.82;4.85;;;;;;;-140.72;100.00;52693.22;5025336;28;20128;-67
2022/04/14 07:22:49;;;;;;;10.77;5.63;;;;;;;-140.72;100.00;52628.28;5016089;28;20052;-67
2022/04/14 07:25:15;;;;;;;13.98;6.25;;;;;;;-140.72;100.00;52644.50;5016710;28;20074;-67
2022/04/14 07:27:42;;;;;;;16.10;5.13;;;;;;;-140.72;100.00;52674.94;5015925;28;20108;-67
2022/04/14 07:30:08;;;;;;;10.98;4.72;;;;;;;-140.72;100.00;52640.44;5010731;28;20053;-66
2022/04/14 07:32:39;;;;;;;13.02;4.80;;;;;;;-140.72;100.00;52646.53;5024366;28;20033;-66
2022/04/14 07:35:05;;;;;;;10.63;5.30;;;;;;;-140.72;100.00;52691.19;5025429;28;20099;-67
2022/04/14 07:37:32;;;;;;;9.70;5.60;;;;;;;-140.72;100.00;52699.31;5008924;28;20041;-67
2022/04/14 07:39:57;;;;;;;8.00;4.32;;;;;;;-140.72;100.00;52658.72;5018671;28;20033;-67
2022/04/14 07:42:33;;;;;;;6.22;4.05;;;;;;;-140.72;100.00;52646.53;5025799;28;20490;-66
2022/04/14 07:44:59;;;;;;;10.02;5.30;;;;;;;-140.72;100.00;52610.00;5026369;28;20082;-68
2022/04/14 07:47:24;;;;;;;6.55;5.00;;;;;;;-140.72;100.00;52666.84;5025445;28;20051;-67
2022/04/14 07:49:50;;;;;;;7.15;4.82;;;;;;;-140.72;100.00;52622.19;5024031;28;20033;-67
2022/04/14 07:52:15;;;;;;;12.35;5.05;;;;;;;-140.72;100.00;52632.34;5005557;28;20479;-66
2022/04/14 07:54:41;;;;;;;8.32;5.65;;;;;;;-140.72;100.00;52648.56;5007346;28;20499;-66
2022/04/14 07:57:06;;;;;;;6.45;4.82;;;;;;;-140.72;100.00;52640.44;5022644;28;20025;-67
2022/04/14 07:59:31;;;;;;;6.97;5.07;;;;;;;-140.72;100.00;52597.84;5024395;28;20033;-67
2022/04/14 08:02:00;;;;;;;8.15;5.20;;;;;;;-140.72;100.00;52601.91;5026060;28;20040;-67
2022/04/14 08:04:30;;;;;;;8.45;5.28;;;;;;;-140.72;100.00;52622.19;5025942;28;20067;-66
2022/04/14 08:06:56;;;;;;;7.35;4.95;;;;;;;-140.72;100.00;52585.66;5025251;28;20566;-66
2022/04/14 08:09:21;;;;;;;8.43;4.85;;;;;;;-140.72;100.00;52612.03;5025154;28;20113;-66
2022/04/14 08:11:46;;;;;;;6.90;4.20;;;;;;;-140.72;100.00;52618.13;5024740;28;20037;-67
2022/04/14 08:14:12;;;;;;;10.02;5.30;;;;;;;-140.72;100.00;52591.75;5024184;28;20025;-66
2022/04/14 08:16:38;;;;;;;6.57;4.78;;;;;;;-140.72;100.00;52583.63;5025014;28;20060;-67
2022/04/14 08:19:03;;;;;;;7.18;4.28;;;;;;;-140.72;100.00;52553.19;5025259;28;20029;-68
2022/04/14 08:21:29;;;;;;;7.03;4.35;;;;;;;-140.72;100.00;52614.06;5024379;28;20045;-67
2022/04/14 08:23:54;;;;;;;11.20;4.85;;;;;;;-140.72;100.00;52620.16;5028164;28;20090;-67
2022/04/14 08:26:21;;;;;;;10.18;5.68;;;;;;;-140.72;100.00;52597.84;5028869;28;20061;-67
2022/04/14 08:28:47;;;;;;;8.63;4.35;;;;;;;-140.72;100.00;52549.13;5027137;28;20116;-67
2022/04/14 08:31:14;;;;;;;11.85;5.13;;;;;;;-140.72;100.00;52545.06;5028082;28;20109;-67
2022/04/14 08:33:40;;;;;;;10.57;4.22;;;;;;;-140.72;100.00;52557.25;5028811;28;20036;-67
2022/04/14 08:36:12;;;;;;;6.07;4.15;;;;;;;-140.72;100.00;52520.72;5028533;28;20091;-68
2022/04/14 08:38:39;;;;;;;6.00;4.15;;;;;;;-140.72;100.00;52555.22;5011301;28;20137;-68
2022/04/14 08:41:07;;;;;;;6.10;4.10;;;;;;;-140.72;100.00;52553.19;5017796;28;20076;-67
2022/04/14 08:43:35;;;;;;;5.63;4.00;;;;;;;-140.72;100.00;52506.53;5019263;28;20033;-68
2022/04/14 08:46:03;;;;;;;6.65;4.25;;;;;;;-140.72;100.00;52536.97;5011346;28;20293;-68
2022/04/14 08:48:29;;;;;;;6.03;3.65;;;;;;;-140.72;100.00;52474.06;5017270;28;20082;-67
2022/04/14 08:50:56;;;;;;;4.50;3.55;;;;;;;-140.72;100.00;52480.16;5026441;28;20022;-68
2022/04/14 08:53:26;;;;;;;5.70;3.33;;;;;;;-140.72;100.00;52502.47;5027555;28;20033;-68
2022/04/14 08:55:52;;;;;;;5.43;3.70;;;;;;;-140.72;100.00;52486.22;5028113;28;20032;-67
2022/04/14 08:58:19;;;;;;;4.18;3.20;;;;;;;-140.72;100.00;52480.16;5017403;28;20030;-67
2022/04/14 09:00:45;;;;;;;4.50;2.95;;;;;;;-140.72;100.00;52425.34;5012763;28;20548;-68
2022/04/14 09:03:15;;;;;;;7.20;3.58;;;;;;;-140.72;100.00;52453.75;5020169;28;20041;-66
2022/04/14 09:05:41;;;;;;;;;;;;;;;-140.72;100.00;52380.72;5028779;28;20026;-66
2022/04/14 09:08:07;;;;;;;6.07;2.60;;;;;;;-140.72;100.00;52368.53;5028120;28;20430;-66
2022/04/14 09:10:32;;;;;;;5.70;2.60;;;;;;;-140.72;100.00;52356.38;5024528;28;20025;-66
2022/04/14 09:12:58;;;;;;;4.35;2.22;;;;;;;-140.72;100.00;52313.75;5010324;28;20345;-67
2022/04/14 09:15:24;;;;;;;4.88;2.80;;;;;;;-140.72;100.00;52330.00;5023303;28;20122;-67
2022/04/14 09:17:49;;;;;;;3.28;1.95;;;;;;;-140.72;100.00;52340.13;5027506;28;20071;-67
2022/04/14 09:20:37;;;;;;;3.67;2.30;;;;;;;-140.72;100.00;52313.75;5025606;28;20121;-66
2022/04/14 09:23:27;;;;;;;4.88;2.00;;;;;;;-140.72;100.00;52311.72;5027953;28;20029;-67
2022/04/14 09:26:09;;;;;;;3.40;2.03;;;;;;;-140.72;100.00;52305.63;5027338;28;20029;-67
2022/04/14 09:28:35;;;;;;;2.75;1.52;;;;;;;-140.72;100.00;52305.63;5022450;28;20064;-66
2022/04/14 09:31:03;;;;;;;3.40;1.67;;;;;;;-140.72;100.00;52287.38;5027138;28;20061;-67
2022/04/14 09:33:30;;;;;;;2.53;1.35;;;;;;;-140.72;100.00;52301.59;5026683;28;20040;-67
2022/04/14 09:36:07;;;;;;;2.38;1.35;;;;;;;-140.72;100.00;52263.03;5027726;28;20029;-67
2022/04/14 09:38:54;;;;;;;3.17;1.60;;;;;;;-140.72;100.00;52206.22;5026017;28;20041;-67
2022/04/14 09:41:39;;;;;;;2.33;1.15;;;;;;;-140.72;100.00;52277.22;5028280;27;20080;-66
2022/04/14 09:44:12;;;;;;;5.05;1.17;;;;;;;-140.72;100.00;52236.66;5016872;28;20029;-68
2022/04/14 09:46:41;;;;;;;3.33;1.50;;;;;;;-140.72;100.00;52285.34;5026315;28;20028;-66
2022/04/14 09:49:17;;;;;;;3.83;2.22;;;;;;;-140.72;100.00;52224.47;5027109;28;20214;-67
2022/04/14 09:51:47;;;;;;;3.60;1.63;;;;;;;-140.72;100.00;52200.13;5027239;28;20048;-66
2022/04/14 09:54:17;;;;;;;4.78;1.75;;;;;;;-140.72;100.00;52248.81;5027699;28;20035;-67
2022/04/14 09:56:47;;;;;;;4.20;0.85;;;;;;;-140.72;100.00;52224.47;5027563;28;20041;-66
2022/04/14 09:59:34;;;;;;;2.63;1.20;;;;;;;-140.72;100.00;52236.66;5027003;28;20040;-66
2022/04/14 10:02:14;;;;;;;2.30;0.80;;;;;;;-140.72;100.00;52228.53;5026650;27;20471;-66
2022/04/14 10:04:42;;;;;;;2.42;1.00;;;;;;;-140.72;100.00;52250.84;5024927;28;20028;-65
2022/04/14 10:07:13;;;;;;;2.10;1.10;;;;;;;-140.72;100.00;52240.72;5026325;28;20025;-66
2022/04/14 10:09:41;;;;;;;3.45;1.50;;;;;;;-140.72;100.00;52244.78;5027653;28;20032;-66
2022/04/14 10:12:29;;;;;;;2.58;1.13;;;;;;;-140.72;100.00;52165.63;5027245;27;20034;-67
2022/04/14 10:15:08;;;;;;;3.53;1.70;;;;;;;-140.72;100.00;52250.84;5026217;28;20085;-65
2022/04/14 10:17:38;;;;;;;1.95;1.38;;;;;;;-140.72;100.00;52189.97;5027117;28;20445;-65
2022/04/14 10:20:05;;;;;;;2.92;1.50;;;;;;;-140.72;100.00;52169.69;5025996;28;20087;-67
2022/04/14 10:22:31;;;;;;;3.13;1.27;;;;;;;-140.72;100.00;52220.41;5020121;28;20045;-67
2022/04/14 10:24:57;;;;;;;2.40;1.50;;;;;;;-140.72;100.00;52175.78;5027055;28;20341;-66
2022/04/14 10:27:22;;;;;;;6.93;1.42;;;;;;;-140.72;100.00;52161.56;5024653;28;20120;-67
2022/04/14 10:29:49;;;;;;;3.15;1.75;;;;;;;-140.72;100.00;52145.34;5014335;28;20045;-68
2022/04/14 10:32:15;;;;;;;2.63;1.50;;;;;;;-140.72;100.00;52106.78;5026665;28;20039;-66
2022/04/14 10:34:40;;;;;;;2.67;1.42;;;;;;;-140.72;100.00;52021.56;5026108;28;20029;-66
2022/04/14 10:37:12;;;;;;;3.15;1.45;;;;;;;-140.72;100.00;52062.16;5025565;28;20026;-66
2022/04/14 10:39:49;;;;;;;4.28;1.00;;;;;;;-140.72;100.00;52021.56;5026734;28;20445;-66
2022/04/14 10:42:18;;;;;;;1.95;1.15;;;;;;;-140.72;100.00;52021.56;5031136;28;20049;-66
2022/04/14 10:44:48;;;;;;;2.10;0.85;;;;;;;-140.72;100.00;52035.78;5022914;28;20041;-66
2022/04/14 10:47:34;;;;;;;2.28;0.73;;;;;;;-140.72;100.00;52135.19;5006184;28;20490;-67
2022/04/14 10:50:00;;;;;;;1.70;1.02;;;;;;;-140.72;100.00;52208.25;5010801;28;20553;-66
2022/04/14 10:52:27;;;;;;;2.97;1.30;;;;;;;-140.72;100.00;52279.25;5037415;28;20136;-66
2022/04/14 10:54:57;;;;;;;3.30;1.23;;;;;;;-140.72;100.00;52171.72;5022469;28;20064;-66
2022/04/14 10:57:36;;;;;;;2.58;0.98;;;;;;;-140.72;100.00;52242.75;5039187;28;20033;-66
2022/04/14 11:00:22;;;;;;;2.88;1.33;;;;;;;-140.72;100.00;52242.75;5035757;28;20463;-67
2022/04/14 11:03:07;;;;;;;2.58;0.70;;;;;;;-140.72;100.00;52307.66;5025791;28;20474;-66
2022/04/14 11:05:39;;;;;;;1.00;0.40;;;;;;;-140.72;100.00;52358.41;5029983;28;20420;-66